createdAt,value
2023-01-19T02:49:03.799Z,0.51
2023-01-19T02:50:03.763Z,0.52
2023-01-19T02:51:03.755Z,0.51
2023-01-19T02:52:03.691Z,0.51
2023-01-19T02:53:03.659Z,0.50
2023-01-19T02:54:03.629Z,0.50
2023-01-19T02:55:03.599Z,0.51
2023-01-19T02:56:03.591Z,0.51
2023-01-19T02:57:03.547Z,0.51
2023-01-19T02:58:03.514Z,0.51
2023-01-19T02:59:03.479Z,0.51
2023-01-19T03:00:03.445Z,0.51
2023-01-19T03:01:03.487Z,0.52
2023-01-19T03:02:03.414Z,0.52
2023-01-19T03:03:03.756Z,0.52
2023-01-19T03:04:03.304Z,0.52
2023-01-19T03:05:04.983Z,0.52
2023-01-19T03:06:03.245Z,0.51
2023-01-19T03:07:03.226Z,0.52
2023-01-19T03:08:03.205Z,0.51
2023-01-19T03:09:03.179Z,0.51
2023-01-19T03:10:03.143Z,0.51
2023-01-19T03:11:03.110Z,0.51
2023-01-19T03:12:03.082Z,0.52
2023-01-19T03:13:03.401Z,0.52
2023-01-19T03:14:03.038Z,0.51
2023-01-19T03:15:03.005Z,0.51
2023-01-19T03:16:03.011Z,0.51
2023-01-19T03:17:02.932Z,0.51
2023-01-19T03:18:02.915Z,0.51
2023-01-19T03:19:02.875Z,0.52
2023-01-19T03:20:02.834Z,0.51
2023-01-19T03:21:02.803Z,0.51
2023-01-19T03:22:02.769Z,0.51
2023-01-19T03:23:03.200Z,0.50
2023-01-19T03:24:02.736Z,0.52
2023-01-19T03:25:02.714Z,0.52
2023-01-19T03:26:02.673Z,0.51
2023-01-19T03:27:02.650Z,0.51
2023-01-19T03:28:02.614Z,0.51
2023-01-19T03:29:02.605Z,0.52
2023-01-19T03:30:02.570Z,0.52
2023-01-19T03:31:02.577Z,0.51
2023-01-19T03:32:02.526Z,0.51
2023-01-19T03:33:02.898Z,0.52
2023-01-19T03:34:02.478Z,0.51
2023-01-19T03:35:02.457Z,0.51
2023-01-19T03:36:02.419Z,0.51
2023-01-19T03:37:02.401Z,0.52
2023-01-19T03:38:02.375Z,0.50
2023-01-19T03:39:02.346Z,0.52
2023-01-19T03:40:02.325Z,0.51
2023-01-19T03:41:02.311Z,0.51
2023-01-19T03:42:02.281Z,0.51
2023-01-19T03:43:02.714Z,0.52
2023-01-19T03:44:02.243Z,0.51
2023-01-19T03:45:02.250Z,0.51
2023-01-19T03:46:02.217Z,0.50
2023-01-19T03:47:02.154Z,0.51
2023-01-19T03:48:02.130Z,0.51
2023-01-19T03:49:02.117Z,0.52
2023-01-19T03:50:02.070Z,0.52
2023-01-19T03:51:02.059Z,0.52
2023-01-19T03:52:02.028Z,0.52
2023-01-19T03:53:02.591Z,0.51
2023-01-19T03:54:01.993Z,0.51
2023-01-19T03:55:01.956Z,0.51
2023-01-19T03:56:01.924Z,0.52
2023-01-19T03:57:01.893Z,0.52
2023-01-19T03:58:01.858Z,0.52
2023-01-19T03:59:01.844Z,0.52
2023-01-19T04:00:01.818Z,0.51
2023-01-19T04:01:01.823Z,0.51
2023-01-19T04:02:01.782Z,0.52
2023-01-19T04:03:02.237Z,0.51
2023-01-19T04:04:01.704Z,0.52
2023-01-19T04:05:01.706Z,0.52
2023-01-19T04:06:01.686Z,0.52
2023-01-19T04:07:01.643Z,0.51
2023-01-19T04:08:01.615Z,0.51
2023-01-19T04:09:01.594Z,0.51
2023-01-19T04:10:01.565Z,0.51
2023-01-19T04:11:01.563Z,0.51
2023-01-19T04:12:01.516Z,0.51
2023-01-19T04:13:01.861Z,0.50
2023-01-19T04:14:01.473Z,0.52
2023-01-19T04:15:01.460Z,0.52
2023-01-19T04:16:01.449Z,0.51
2023-01-19T04:17:01.377Z,0.51
2023-01-19T04:18:01.355Z,0.52
2023-01-19T04:19:01.324Z,0.51
2023-01-19T04:20:01.281Z,0.51
2023-01-19T04:21:01.249Z,0.52
2023-01-19T04:22:01.217Z,0.52
2023-01-19T04:23:01.768Z,0.51
2023-01-19T04:24:01.136Z,0.51
2023-01-19T04:25:01.117Z,0.51
2023-01-19T04:26:01.061Z,0.51
2023-01-19T04:27:01.037Z,0.52
2023-01-19T04:28:01.015Z,0.51
2023-01-19T04:29:00.969Z,0.51
2023-01-19T04:30:00.942Z,0.50
2023-01-19T04:31:00.962Z,0.52
2023-01-19T04:32:00.885Z,0.51
2023-01-19T04:33:01.245Z,0.51
2023-01-19T04:34:00.820Z,0.51
2023-01-19T04:35:00.791Z,0.51
2023-01-19T04:36:00.780Z,0.50
2023-01-19T04:37:00.717Z,0.51
2023-01-19T04:38:00.687Z,0.51
2023-01-19T04:39:00.668Z,0.51
2023-01-19T04:40:00.635Z,0.51
2023-01-19T04:41:00.615Z,0.51
2023-01-19T04:42:00.581Z,0.51
2023-01-19T04:43:00.984Z,0.52
2023-01-19T04:44:00.533Z,0.52
2023-01-19T04:45:00.501Z,0.52
2023-01-19T04:46:00.484Z,0.50
2023-01-19T04:47:00.433Z,0.52
2023-01-19T04:48:00.401Z,0.51
2023-01-19T04:49:00.371Z,0.51
2023-01-19T04:50:00.350Z,0.51
2023-01-19T04:51:00.329Z,0.52
2023-01-19T04:52:00.275Z,0.51
2023-01-19T04:53:00.682Z,0.51
2023-01-19T04:54:00.295Z,0.51
2023-01-19T04:55:00.175Z,0.52
2023-01-19T04:56:00.149Z,0.51
2023-01-19T04:57:00.159Z,0.51
2023-01-19T04:58:00.119Z,0.51
2023-01-19T04:59:00.110Z,0.51
2023-01-19T05:00:00.034Z,0.51
2023-01-19T05:01:00.015Z,0.51
2023-01-19T05:02:00.052Z,0.52
2023-01-19T05:03:00.459Z,0.51
2023-01-19T05:03:59.940Z,0.51
2023-01-19T05:04:59.888Z,0.51
2023-01-19T05:05:59.861Z,0.51
2023-01-19T05:06:59.846Z,0.52
2023-01-19T05:07:59.812Z,0.51
2023-01-19T05:08:59.789Z,0.50
2023-01-19T05:09:59.733Z,0.51
2023-01-19T05:10:59.701Z,0.51
2023-01-19T05:11:59.665Z,0.51
2023-01-19T05:12:59.958Z,0.51
2023-01-19T05:13:59.602Z,0.52
2023-01-19T05:14:59.571Z,0.52
2023-01-19T05:15:59.561Z,0.51
2023-01-19T05:16:59.500Z,0.52
2023-01-19T05:17:59.460Z,0.51
2023-01-19T05:18:59.428Z,0.52
2023-01-19T05:19:59.393Z,0.51
2023-01-19T05:20:59.361Z,0.52
2023-01-19T05:21:59.326Z,0.51
2023-01-19T05:22:59.605Z,0.52
2023-01-19T05:23:59.239Z,0.51
2023-01-19T05:24:59.204Z,0.52
2023-01-19T05:25:59.170Z,0.51
2023-01-19T05:26:59.243Z,0.52
2023-01-19T05:27:59.116Z,0.50
2023-01-19T05:28:59.082Z,0.52
2023-01-19T05:29:59.054Z,0.52
2023-01-19T05:30:59.150Z,0.52
2023-01-19T05:31:59.011Z,0.52
2023-01-19T05:32:59.311Z,0.52
2023-01-19T05:33:58.941Z,0.52
2023-01-19T05:34:58.904Z,0.51
2023-01-19T07:26:55.022Z,1.72
2023-01-19T07:28:54.927Z,1.79
2023-01-19T07:33:54.703Z,2.00
2023-01-19T08:03:53.444Z,0.50
2023-01-19T08:06:53.338Z,0.52
2023-01-19T08:08:53.305Z,0.50
2023-01-19T08:09:53.258Z,0.50
2023-01-19T08:10:53.232Z,0.51
2023-01-19T08:11:53.209Z,0.77
2023-01-19T08:15:53.136Z,5.69
2023-01-19T08:16:53.044Z,4.45
2023-01-19T08:26:52.759Z,2.33
2023-01-19T08:59:51.565Z,3.26
2023-01-19T09:33:38.388Z,0.72
2023-01-19T09:34:38.324Z,0.73
2023-01-19T10:37:36.149Z,3.81
2023-01-19T10:38:36.147Z,3.84
2023-01-19T10:39:38.706Z,3.88
2023-01-19T10:40:36.180Z,4.01
2023-01-19T10:41:36.070Z,4.04
2023-01-19T10:42:36.026Z,2.93
2023-01-19T10:43:35.937Z,3.34
2023-01-19T10:44:35.857Z,3.27
2023-01-19T10:45:36.882Z,3.34
2023-01-19T10:46:35.779Z,1.23
2023-01-19T10:47:35.752Z,0.50
2023-01-19T10:48:35.685Z,0.35
2023-01-19T10:49:35.721Z,0.34
2023-01-19T10:50:35.640Z,0.34
2023-01-19T10:51:35.615Z,0.34
2023-01-19T10:52:35.651Z,0.34
2023-01-19T10:53:35.599Z,0.34
2023-01-19T10:54:35.567Z,0.34
2023-01-19T10:55:35.578Z,0.34
2023-01-19T10:56:35.604Z,0.34
2023-01-19T10:57:35.558Z,0.34
2023-01-19T10:58:35.554Z,0.34
2023-01-19T10:59:35.526Z,0.34
2023-01-19T11:00:35.629Z,0.35
2023-01-19T11:01:35.652Z,0.38
2023-01-19T11:02:35.785Z,0.42
2023-01-19T11:03:35.601Z,0.42
2023-01-19T11:04:35.622Z,0.50
2023-01-19T11:05:35.518Z,0.45
2023-01-19T11:06:35.542Z,0.52
2023-01-19T11:07:35.499Z,0.53
2023-01-19T11:08:35.532Z,0.65
2023-01-19T11:09:35.513Z,0.75
2023-01-19T11:10:35.513Z,0.89
2023-01-19T11:11:35.520Z,1.55
2023-01-19T11:12:35.519Z,2.12
2023-01-19T11:13:35.497Z,2.55
2023-01-19T11:14:35.516Z,3.79
2023-01-19T11:15:35.483Z,3.67
2023-01-19T11:16:35.534Z,4.94
2023-01-19T11:17:35.460Z,5.50
2023-01-19T11:18:35.428Z,6.11
2023-01-19T11:19:35.420Z,7.27
2023-01-19T11:20:35.392Z,8.21
2023-01-19T11:21:35.389Z,8.59
2023-01-19T11:22:35.361Z,8.95
2023-01-19T11:23:35.368Z,8.98
2023-01-19T11:24:35.321Z,9.17
2023-01-19T11:25:35.306Z,9.52
2023-01-19T11:26:35.275Z,10.82
2023-01-19T11:27:35.269Z,12.39
2023-01-19T11:28:35.236Z,13.24
2023-01-19T11:29:35.198Z,14.15
2023-01-19T11:30:35.169Z,15.07
2023-01-19T11:31:35.240Z,15.73
2023-01-19T11:32:35.108Z,16.42
2023-01-19T11:33:35.182Z,17.29
2023-01-19T11:34:35.072Z,17.73
2023-01-19T11:35:35.036Z,18.55
2023-01-19T11:36:35.008Z,19.63
2023-01-19T11:37:34.984Z,20.52
2023-01-19T11:38:34.977Z,21.41
2023-01-19T11:39:34.946Z,22.37
2023-01-19T11:40:34.927Z,23.01
2023-01-19T11:41:34.887Z,8.72
2023-01-19T11:42:34.861Z,2.27
2023-01-19T11:43:48.198Z,1.31
2023-01-19T11:44:35.845Z,0.94
2023-01-19T11:45:34.849Z,0.86
2023-01-19T11:46:34.818Z,1.19
2023-01-19T11:47:34.799Z,1.38
2023-01-19T11:48:34.791Z,1.69
2023-01-19T11:49:34.801Z,2.78
2023-01-19T11:50:34.786Z,3.94
2023-01-19T11:51:34.790Z,5.56
2023-01-19T11:52:34.763Z,7.38
2023-01-19T11:53:34.764Z,8.72
2023-01-19T11:54:34.764Z,8.08
2023-01-19T11:55:34.763Z,7.85
2023-01-19T11:56:34.732Z,7.75
2023-01-19T11:57:34.710Z,7.69
2023-01-19T11:58:34.700Z,9.10
2023-01-19T11:59:34.668Z,11.89
2023-01-19T12:00:34.668Z,11.20
2023-01-19T12:01:34.668Z,12.52
2023-01-19T12:02:34.710Z,13.90
2023-01-19T12:03:34.655Z,14.57
2023-01-19T12:04:34.572Z,15.04
2023-01-19T12:05:34.560Z,15.84
2023-01-19T12:06:34.507Z,16.40
2023-01-19T12:07:34.487Z,16.65
2023-01-19T12:08:34.472Z,16.71
2023-01-19T12:09:34.441Z,17.40
2023-01-19T12:10:34.409Z,16.62
2023-01-19T12:11:34.389Z,17.08
2023-01-19T12:12:34.401Z,17.32
2023-01-19T12:13:34.349Z,12.44
2023-01-19T12:14:34.337Z,9.99
2023-01-19T12:15:34.347Z,6.75
2023-01-19T12:16:34.335Z,5.54
2023-01-19T12:17:34.298Z,4.88
2023-01-19T12:18:34.229Z,4.31
2023-01-19T12:19:34.218Z,3.01
2023-01-19T12:20:34.198Z,2.80
2023-01-19T12:21:34.191Z,3.24
2023-01-19T12:22:34.211Z,3.21
2023-01-19T12:23:34.157Z,4.23
2023-01-19T12:24:34.212Z,5.18
2023-01-19T12:25:34.125Z,5.35
2023-01-19T12:26:34.101Z,6.05
2023-01-19T12:27:34.104Z,6.84
2023-01-19T12:28:34.092Z,7.40
2023-01-19T12:29:34.030Z,7.80
2023-01-19T12:30:34.132Z,8.54
2023-01-19T12:31:34.104Z,8.89
2023-01-19T12:32:33.981Z,9.58
2023-01-19T12:33:33.928Z,10.00
2023-01-19T12:34:33.900Z,10.71
2023-01-19T12:35:33.882Z,25.36
2023-01-19T12:36:33.879Z,31.82
2023-01-19T12:37:33.842Z,29.38
2023-01-19T12:38:33.830Z,26.39
2023-01-19T12:39:33.805Z,24.54
2023-01-19T12:40:33.770Z,23.40
2023-01-19T12:41:33.770Z,23.05
2023-01-19T12:42:33.876Z,22.26
2023-01-19T12:43:33.722Z,21.67
2023-01-19T12:44:33.698Z,20.88
2023-01-19T12:45:33.682Z,20.66
2023-01-19T12:46:33.683Z,20.63
2023-01-19T12:47:33.625Z,20.28
2023-01-19T12:48:33.615Z,20.20
2023-01-19T12:49:33.603Z,19.84
2023-01-19T12:50:33.540Z,19.82
2023-01-19T12:51:33.517Z,19.18
2023-01-19T12:52:33.566Z,19.15
2023-01-19T12:53:33.462Z,18.90
2023-01-19T12:54:33.429Z,18.74
2023-01-19T12:55:33.417Z,18.83
2023-01-19T12:56:33.354Z,18.35
2023-01-19T12:57:33.322Z,18.19
2023-01-19T12:58:33.286Z,17.87
2023-01-19T12:59:33.277Z,17.79
2023-01-19T13:00:33.226Z,18.02
2023-01-19T13:01:33.308Z,17.82
2023-01-19T13:02:33.220Z,17.52
2023-01-19T13:03:33.163Z,17.32
2023-01-19T13:04:33.140Z,17.33
2023-01-19T13:05:33.675Z,17.33
2023-01-19T13:06:33.095Z,17.17
2023-01-19T13:07:33.065Z,17.36
2023-01-19T13:08:33.033Z,16.73
2023-01-19T13:09:33.022Z,16.63
2023-01-19T13:10:32.970Z,16.19
2023-01-19T13:11:34.723Z,16.34
2023-01-19T13:12:32.900Z,16.31
2023-01-19T13:13:32.875Z,16.33
2023-01-19T13:14:32.863Z,15.83
2023-01-19T13:15:32.890Z,15.81
2023-01-19T13:16:32.792Z,15.91
2023-01-19T13:17:32.769Z,15.85
2023-01-19T13:18:32.742Z,15.73
2023-01-19T13:19:32.702Z,15.51
2023-01-19T13:20:32.678Z,15.23
2023-01-19T13:21:32.770Z,15.13
2023-01-19T13:22:32.636Z,15.19
2023-01-19T13:23:32.613Z,15.28
2023-01-19T13:24:32.589Z,15.27
2023-01-19T13:25:32.566Z,14.76
2023-01-19T13:26:32.541Z,14.51
2023-01-19T13:27:32.512Z,14.46
2023-01-19T13:28:32.505Z,14.70
2023-01-19T13:29:32.459Z,14.50
2023-01-19T13:30:32.470Z,14.52
2023-01-19T13:31:32.448Z,14.37
2023-01-19T13:32:32.380Z,14.38
2023-01-19T13:33:32.374Z,14.12
2023-01-19T13:34:32.320Z,14.27
2023-01-19T13:35:32.291Z,14.38
2023-01-19T13:36:32.267Z,14.03
2023-01-19T13:37:32.236Z,13.77
2023-01-19T13:38:32.206Z,13.68
2023-01-19T13:39:32.184Z,13.69
2023-01-19T13:40:32.155Z,13.73
2023-01-19T13:41:32.119Z,13.80
2023-01-19T13:42:32.131Z,13.44
2023-01-19T13:43:32.058Z,13.49
2023-01-19T13:44:32.035Z,13.03
2023-01-19T13:45:32.018Z,13.27
2023-01-19T13:46:32.047Z,13.32
2023-01-19T13:47:31.947Z,13.33
2023-01-19T13:48:31.907Z,12.84
2023-01-19T13:49:31.869Z,12.88
2023-01-19T13:50:31.844Z,12.71
2023-01-19T13:51:31.811Z,12.79
2023-01-19T13:52:31.829Z,12.84
2023-01-19T13:53:31.767Z,12.43
2023-01-19T13:54:31.723Z,12.47
2023-01-19T13:55:31.704Z,12.17
2023-01-19T13:56:31.684Z,12.14
2023-01-19T13:57:31.634Z,12.19
2023-01-19T13:58:31.671Z,12.39
2023-01-19T13:59:31.575Z,12.13
2023-01-19T14:00:31.543Z,12.14
2023-01-19T14:01:31.670Z,12.04
2023-01-19T14:02:31.629Z,12.04
2023-01-19T14:03:31.508Z,12.07
2023-01-19T14:04:31.443Z,11.94
2023-01-19T14:05:31.377Z,11.60
2023-01-19T14:06:31.346Z,11.54
2023-01-19T14:07:31.365Z,11.66
2023-01-19T14:08:31.318Z,11.54
2023-01-19T14:09:31.323Z,11.73
2023-01-19T14:10:31.278Z,11.35
2023-01-19T14:11:31.205Z,11.26
2023-01-19T14:12:31.179Z,11.24
2023-01-19T14:13:31.152Z,11.22
2023-01-19T14:14:31.150Z,11.31
2023-01-19T14:15:31.110Z,11.28
2023-01-19T14:16:31.142Z,11.15
2023-01-19T14:17:31.063Z,10.99
2023-01-19T14:18:31.073Z,10.79
2023-01-19T14:19:31.068Z,10.92
2023-01-19T14:20:30.991Z,10.90
2023-01-19T14:21:30.973Z,10.89
2023-01-19T14:22:30.939Z,10.64
2023-01-19T14:23:30.923Z,10.69
2023-01-19T14:24:30.897Z,10.54
2023-01-19T14:25:30.868Z,10.62
2023-01-19T14:26:30.834Z,10.80
2023-01-19T14:27:30.817Z,10.65
2023-01-19T14:28:30.778Z,10.41
2023-01-19T14:29:32.799Z,10.32
2023-01-19T14:30:30.724Z,10.35
2023-01-19T14:31:30.746Z,10.30
2023-01-19T14:32:30.680Z,10.36
2023-01-19T14:33:30.634Z,10.25
2023-01-19T14:34:30.605Z,10.11
2023-01-19T14:35:30.575Z,10.05
2023-01-19T14:36:30.531Z,10.08
2023-01-19T14:37:30.512Z,10.00
2023-01-19T14:38:30.457Z,9.98
2023-01-19T14:39:30.438Z,9.77
2023-01-19T14:40:30.380Z,9.78
2023-01-19T14:41:30.382Z,9.79
2023-01-19T14:42:30.326Z,9.84
2023-01-19T14:43:30.293Z,9.88
2023-01-19T14:44:30.281Z,9.83
2023-01-19T14:45:30.233Z,9.74
2023-01-19T14:46:30.219Z,9.74
2023-01-19T14:47:30.194Z,9.70
2023-01-19T14:48:30.141Z,9.71
2023-01-19T14:49:30.136Z,9.72
2023-01-19T14:50:30.069Z,9.65
2023-01-19T14:51:30.111Z,9.60
2023-01-19T14:52:30.061Z,9.51
2023-01-19T14:53:29.982Z,9.43
2023-01-19T14:54:29.955Z,9.53
2023-01-19T14:55:29.918Z,9.48
2023-01-19T14:56:29.900Z,9.40
2023-01-19T14:57:29.854Z,9.41
2023-01-19T14:58:29.813Z,9.41
2023-01-19T14:59:29.820Z,9.40
2023-01-19T15:00:29.778Z,9.44
2023-01-19T15:01:29.883Z,9.46
2023-01-19T15:02:29.747Z,9.40
2023-01-19T15:03:43.565Z,9.40
2023-01-19T15:04:30.645Z,9.41
2023-01-19T15:05:29.609Z,9.42
2023-01-19T15:06:29.579Z,9.40
2023-01-19T15:07:29.555Z,9.30
2023-01-19T15:08:29.516Z,9.26
2023-01-19T15:09:29.504Z,9.21
2023-01-19T15:10:29.471Z,9.15
2023-01-19T15:11:29.433Z,9.17
2023-01-19T15:12:29.400Z,9.20
2023-01-19T15:13:29.376Z,9.11
2023-01-19T15:14:29.341Z,9.06
2023-01-19T15:15:29.313Z,8.85
2023-01-19T15:16:29.466Z,9.01
2023-01-19T15:17:29.246Z,9.00
2023-01-19T15:18:29.225Z,8.95
2023-01-19T15:19:29.194Z,8.85
2023-01-19T15:20:29.184Z,8.80
2023-01-19T15:21:29.142Z,8.85
2023-01-19T15:22:29.103Z,8.79
2023-01-19T15:23:29.067Z,8.69
2023-01-19T15:24:29.036Z,8.72
2023-01-19T15:25:28.998Z,8.67
2023-01-19T15:26:28.945Z,8.67
2023-01-19T15:27:28.911Z,8.66
2023-01-19T16:34:26.915Z,9.06
2023-01-19T16:35:26.871Z,9.20
2023-01-19T16:36:26.862Z,9.07
2023-01-19T16:37:28.117Z,9.13
2023-01-19T16:38:26.861Z,9.04
2023-01-19T16:39:26.756Z,9.08
2023-01-19T16:40:26.721Z,9.11
2023-01-19T16:41:26.704Z,9.13
2023-01-19T16:42:26.673Z,9.08
2023-01-19T16:43:28.293Z,9.15
2023-01-19T16:44:26.637Z,9.08
2023-01-19T16:45:26.625Z,8.94
2023-01-19T16:46:26.579Z,9.06
2023-01-19T16:47:26.550Z,8.90
2023-01-19T16:48:26.518Z,8.96
2023-01-19T16:49:28.378Z,8.96
2023-01-19T16:50:26.445Z,8.95
2023-01-19T16:51:26.412Z,8.92
2023-01-19T16:52:26.395Z,8.98
2023-01-19T16:53:26.365Z,8.96
2023-01-19T16:54:26.339Z,8.89
2023-01-19T16:55:26.311Z,8.82
2023-01-19T16:56:26.291Z,8.97
2023-01-19T16:57:26.277Z,8.93
2023-01-19T16:58:26.246Z,9.05
2023-01-19T16:59:26.208Z,8.92
2023-01-19T17:00:26.180Z,8.98
2023-01-19T17:01:26.227Z,9.00
2023-01-19T17:02:26.154Z,9.00
2023-01-19T17:03:26.080Z,8.88
2023-01-19T17:04:26.058Z,8.94
2023-01-19T17:05:26.053Z,8.92
2023-01-19T17:06:26.012Z,8.92
2023-01-19T17:07:25.982Z,8.82
2023-01-19T17:08:25.952Z,8.79
2023-01-19T17:09:25.918Z,8.86
2023-01-19T17:10:25.891Z,8.82
2023-01-19T17:11:25.861Z,8.83
2023-01-19T17:12:25.845Z,8.75
2023-01-19T17:13:25.811Z,8.75
2023-01-19T17:14:25.788Z,8.76
2023-01-19T17:15:25.776Z,8.78
2023-01-19T17:16:25.791Z,8.73
2023-01-19T17:17:25.710Z,8.74
2023-01-19T17:18:25.692Z,8.76
2023-01-19T17:19:26.813Z,8.78
2023-01-19T17:20:25.651Z,8.77
2023-01-19T17:21:25.629Z,8.76
2023-01-19T17:22:25.597Z,8.70
2023-01-19T17:23:25.572Z,8.80
2023-01-19T17:24:25.540Z,8.79
2023-01-19T17:25:25.515Z,8.82
2023-01-19T17:26:25.515Z,8.70
2023-01-19T17:27:25.467Z,8.68
2023-01-19T17:28:25.447Z,8.65
2023-01-19T17:29:25.411Z,8.67
2023-01-19T17:30:25.519Z,8.68
2023-01-19T17:31:25.432Z,8.69
2023-01-19T17:32:25.315Z,8.60
2023-01-19T17:33:25.292Z,8.58
2023-01-19T17:34:25.260Z,8.58
2023-01-19T17:35:25.231Z,8.56
2023-01-19T17:36:25.219Z,8.53
2023-01-19T17:37:25.171Z,8.50
2023-01-19T17:38:25.137Z,8.50
2023-01-19T17:39:25.111Z,8.42
2023-01-19T17:40:25.092Z,8.52
2023-01-19T17:41:25.072Z,8.47
2023-01-19T17:42:25.042Z,8.50
2023-01-19T17:43:25.012Z,8.49
2023-01-19T17:44:25.017Z,8.38
2023-01-19T17:45:24.957Z,8.37
2023-01-19T17:46:24.993Z,8.42
2023-01-19T17:47:24.914Z,8.46
2023-01-19T17:48:24.894Z,8.29
2023-01-19T17:49:24.875Z,8.33
2023-01-19T17:50:24.851Z,8.24
2023-01-19T17:51:24.823Z,8.19
2023-01-19T17:52:24.810Z,8.26
2023-01-19T17:53:24.784Z,8.21
2023-01-19T17:54:24.759Z,8.28
2023-01-19T17:55:24.730Z,8.36
2023-01-19T17:56:24.703Z,8.33
2023-01-19T17:57:24.671Z,8.32
2023-01-19T17:58:24.647Z,8.24
2023-01-19T17:59:24.623Z,8.14
2023-01-19T18:00:24.592Z,8.26
2023-01-19T18:01:24.776Z,8.27
2023-01-19T18:02:24.644Z,8.23
2023-01-19T18:03:24.530Z,8.17
2023-01-19T18:04:24.503Z,8.11
2023-01-19T18:05:24.479Z,8.18
2023-01-19T18:06:24.454Z,8.13
2023-01-19T18:07:24.431Z,8.16
2023-01-19T18:08:24.401Z,8.10
2023-01-19T18:09:24.424Z,8.08
2023-01-19T18:10:24.349Z,8.03
2023-01-19T18:11:24.321Z,8.06
2023-01-19T18:12:24.303Z,7.98
2023-01-19T18:13:24.265Z,7.92
2023-01-19T18:14:24.244Z,7.94
2023-01-19T18:15:24.207Z,7.93
2023-01-19T18:16:24.197Z,7.93
2023-01-19T18:17:24.151Z,7.92
2023-01-19T18:18:24.117Z,7.79
2023-01-19T18:19:24.087Z,7.89
2023-01-19T18:20:24.054Z,7.80
2023-01-19T18:21:24.039Z,7.81
2023-01-19T18:22:23.997Z,7.66
2023-01-19T18:23:23.962Z,7.59
2023-01-19T18:24:23.940Z,7.56
2023-01-19T18:25:23.902Z,7.46
2023-01-19T18:26:23.884Z,7.52
2023-01-19T18:27:23.865Z,7.35
2023-01-19T18:28:23.832Z,7.36
2023-01-19T18:29:23.818Z,7.37
2023-01-19T18:30:23.805Z,7.33
2023-01-19T18:31:23.806Z,7.27
2023-01-19T18:32:25.264Z,7.15
2023-01-19T18:33:23.894Z,7.18
2023-01-19T18:34:23.857Z,7.11
2023-01-19T18:35:23.848Z,7.11
2023-01-19T18:36:23.813Z,7.00
2023-01-19T18:37:23.808Z,6.89
2023-01-19T18:38:23.767Z,6.87
2023-01-19T18:39:23.740Z,6.87
2023-01-19T18:40:23.718Z,6.81
2023-01-19T18:41:23.780Z,6.71
2023-01-19T18:42:23.666Z,6.69
2023-01-19T18:43:23.613Z,6.68
2023-01-19T18:44:23.580Z,6.61
2023-01-19T18:45:23.551Z,6.55
2023-01-19T18:46:23.555Z,6.49
2023-01-19T18:47:23.493Z,6.45
2023-01-19T18:48:23.474Z,6.38
2023-01-19T18:49:23.441Z,6.29
2023-01-19T18:50:23.411Z,6.24
2023-01-19T18:51:23.390Z,6.13
2023-01-19T18:52:23.356Z,6.20
2023-01-19T18:53:23.367Z,6.15
2023-01-19T18:54:23.303Z,6.13
2023-01-19T18:55:23.265Z,6.04
2023-01-19T18:56:23.233Z,6.02
2023-01-19T18:57:23.192Z,6.04
2023-01-19T18:58:23.176Z,5.95
2023-01-19T18:59:23.147Z,5.96
2023-01-19T19:00:23.104Z,5.96
2023-01-19T19:01:23.151Z,5.96
2023-01-19T19:02:23.060Z,5.95
2023-01-19T19:03:23.002Z,5.81
2023-01-19T19:04:22.967Z,5.86
2023-01-19T19:05:22.964Z,5.86
2023-01-19T19:06:22.908Z,5.82
2023-01-19T19:07:22.863Z,5.78
2023-01-19T19:08:22.859Z,5.74
2023-01-19T19:09:22.797Z,5.74
2023-01-19T19:10:22.803Z,5.76
2023-01-19T19:11:22.799Z,5.77
2023-01-19T19:12:22.696Z,5.69
2023-01-19T19:13:22.657Z,5.70
2023-01-19T19:14:22.623Z,5.68
2023-01-19T19:15:22.597Z,5.70
2023-01-19T19:16:22.639Z,5.67
2023-01-19T19:17:22.511Z,5.76
2023-01-19T19:18:22.501Z,5.80
2023-01-19T19:19:22.456Z,5.77
2023-01-19T19:20:22.397Z,5.82
2023-01-19T19:21:22.363Z,5.86
2023-01-19T19:22:25.374Z,5.82
2023-01-19T19:23:22.294Z,6.03
2023-01-19T19:24:22.260Z,5.96
2023-01-19T19:25:22.224Z,5.92
2023-01-19T19:26:22.195Z,5.95
2023-01-19T19:27:22.165Z,5.94
2023-01-19T19:28:22.139Z,6.04
2023-01-19T19:29:22.114Z,5.99
2023-01-19T19:30:22.194Z,6.01
2023-01-19T19:31:22.068Z,5.99
2023-01-19T19:32:22.037Z,5.96
2023-01-19T19:33:21.993Z,5.99
2023-01-19T19:34:21.973Z,5.98
2023-01-19T19:35:21.948Z,6.07
2023-01-19T19:36:21.917Z,5.95
2023-01-19T19:37:21.893Z,5.98
2023-01-19T19:38:21.846Z,6.03
2023-01-19T19:39:21.811Z,6.03
2023-01-19T19:40:21.779Z,6.01
2023-01-19T19:41:21.749Z,6.00
2023-01-19T19:42:21.730Z,5.97
2023-01-19T19:43:21.727Z,6.03
2023-01-19T19:44:21.679Z,6.01
2023-01-19T19:45:21.651Z,5.97
2023-01-19T19:46:21.659Z,5.96
2023-01-19T19:47:21.574Z,5.84
2023-01-19T19:48:21.564Z,5.87
2023-01-19T19:49:21.520Z,5.87
2023-01-19T19:50:21.508Z,5.83
2023-01-19T19:51:21.474Z,5.75
2023-01-19T19:52:21.438Z,5.72
2023-01-19T19:53:21.466Z,5.66
2023-01-19T19:54:21.383Z,5.64
2023-01-19T19:55:21.445Z,5.64
2023-01-19T19:56:21.653Z,5.61
2023-01-19T19:57:21.338Z,5.51
2023-01-19T19:58:21.274Z,5.52
2023-01-19T19:59:21.247Z,5.41
2023-01-19T20:00:21.215Z,5.44
2023-01-19T20:01:21.352Z,5.47
2023-01-19T20:02:21.183Z,5.37
2023-01-19T20:03:21.144Z,5.31
2023-01-19T20:04:21.171Z,5.34
2023-01-19T20:05:21.148Z,5.33
2023-01-19T20:06:21.089Z,5.27
2023-01-19T20:07:21.049Z,5.33
2023-01-19T20:08:21.030Z,5.12
2023-01-19T20:09:21.015Z,5.16
2023-01-19T20:10:20.990Z,5.17
2023-01-19T20:11:20.977Z,5.13
2023-01-19T20:12:20.947Z,5.16
2023-01-19T20:13:20.917Z,5.08
2023-01-19T20:14:20.890Z,5.00
2023-01-19T20:15:20.873Z,5.04
2023-01-19T20:16:20.929Z,5.04
2023-01-19T20:17:20.855Z,4.96
2023-01-19T20:18:20.794Z,5.03
2023-01-19T20:19:20.765Z,5.00
2023-01-19T20:20:20.740Z,4.95
2023-01-19T20:21:20.719Z,4.98
2023-01-19T20:22:20.690Z,4.94
2023-01-19T20:23:20.673Z,4.94
2023-01-19T20:24:20.651Z,4.96
2023-01-19T20:25:20.617Z,4.92
2023-01-19T20:26:20.578Z,4.81
2023-01-19T20:27:20.571Z,4.91
2023-01-19T20:28:20.522Z,4.85
2023-01-19T20:29:20.509Z,4.88
2023-01-19T20:30:20.503Z,4.89
2023-01-19T20:31:20.512Z,4.82
2023-01-19T20:32:20.453Z,4.85
2023-01-19T20:33:20.393Z,4.80
2023-01-19T20:34:20.375Z,4.79
2023-01-19T20:35:20.354Z,4.82
2023-01-19T20:36:20.326Z,4.78
2023-01-19T20:37:20.316Z,4.77
2023-01-19T20:38:20.280Z,4.75
2023-01-19T20:39:20.280Z,4.75
2023-01-19T20:40:20.235Z,4.76
2023-01-19T20:41:20.220Z,4.74
2023-01-19T20:42:20.182Z,4.77
2023-01-19T20:43:20.174Z,4.76
2023-01-19T20:44:20.171Z,4.70
2023-01-19T20:45:20.102Z,4.74
2023-01-19T20:46:20.073Z,4.78
2023-01-19T20:47:20.055Z,4.76
2023-01-19T20:48:20.035Z,4.72
2023-01-19T20:49:20.021Z,4.71
2023-01-19T20:50:19.982Z,4.67
2023-01-19T20:51:19.957Z,4.69
2023-01-19T20:52:19.930Z,4.72
2023-01-19T20:53:19.897Z,4.72
2023-01-19T20:54:19.877Z,4.66
2023-01-19T20:55:20.266Z,4.68
2023-01-19T20:56:19.793Z,4.69
2023-01-19T20:57:19.773Z,4.70
2023-01-19T20:58:19.751Z,4.72
2023-01-19T20:59:19.702Z,4.73
2023-01-19T21:00:19.681Z,4.70
2023-01-19T21:01:19.738Z,4.69
2023-01-19T21:02:19.687Z,4.70
2023-01-19T21:03:19.603Z,4.66
2023-01-19T21:04:19.595Z,4.66
2023-01-19T21:05:19.551Z,4.63
2023-01-19T21:06:19.515Z,4.55
2023-01-19T21:07:19.483Z,4.56
2023-01-19T21:08:19.457Z,4.57
2023-01-19T21:09:19.462Z,4.58
2023-01-19T21:10:19.418Z,4.54
2023-01-19T21:11:19.389Z,4.56
2023-01-19T21:12:19.354Z,4.52
2023-01-19T21:13:19.330Z,4.49
2023-01-19T21:14:19.326Z,4.54
2023-01-19T21:15:19.295Z,4.48
2023-01-19T21:16:19.290Z,4.54
2023-01-19T21:17:19.245Z,4.49
2023-01-19T21:18:19.213Z,4.41
2023-01-19T21:19:19.204Z,4.41
2023-01-19T21:20:19.167Z,4.42
2023-01-19T21:21:29.811Z,4.44
2023-01-19T21:22:20.128Z,4.41
2023-01-19T21:23:19.091Z,4.42
2023-01-19T21:24:19.082Z,4.41
2023-01-19T21:25:19.083Z,4.42
2023-01-19T21:26:19.053Z,4.41
2023-01-19T21:27:19.003Z,4.42
2023-01-19T21:28:18.967Z,4.43
2023-01-19T21:29:18.938Z,4.31
2023-01-19T21:30:18.981Z,4.30
